sensor_id;sensor_type;location;lat;lon;timestamp;P1;durP1;ratioP1;P2;durP2;ratioP2
37973;SDS011;23796;51.458;7.000;2023-07-28T00:00:16;4.70;;;2.70;;
37973;SDS011;23796;51.458;7.000;2023-07-28T00:02:42;4.38;;;2.92;;
37973;SDS011;23796;51.458;7.000;2023-07-28T00:05:08;5.35;;;3.10;;
37973;SDS011;23796;51.458;7.000;2023-07-28T00:07:35;5.35;;;3.15;;
37973;SDS011;23796;51.458;7.000;2023-07-28T00:10:01;3.95;;;2.40;;
37973;SDS011;23796;51.458;7.000;2023-07-28T00:12:27;4.20;;;2.83;;
37973;SDS011;23796;51.458;7.000;2023-07-28T00:14:53;3.55;;;2.55;;
37973;SDS011;23796;51.458;7.000;2023-07-28T00:19:51;4.25;;;2.85;;
37973;SDS011;23796;51.458;7.000;2023-07-28T00:22:19;4.20;;;2.80;;
37973;SDS011;23796;51.458;7.000;2023-07-28T00:24:44;4.40;;;2.78;;
37973;SDS011;23796;51.458;7.000;2023-07-28T00:27:12;4.22;;;3.00;;
37973;SDS011;23796;51.458;7.000;2023-07-28T00:29:39;4.70;;;3.30;;
37973;SDS011;23796;51.458;7.000;2023-07-28T00:32:06;5.55;;;2.90;;
37973;SDS011;23796;51.458;7.000;2023-07-28T00:34:34;4.07;;;2.97;;
37973;SDS011;23796;51.458;7.000;2023-07-28T00:36:59;3.78;;;3.20;;
37973;SDS011;23796;51.458;7.000;2023-07-28T00:39:25;4.00;;;3.35;;
37973;SDS011;23796;51.458;7.000;2023-07-28T00:41:50;4.38;;;3.38;;
37973;SDS011;23796;51.458;7.000;2023-07-28T00:44:18;4.47;;;3.67;;
37973;SDS011;23796;51.458;7.000;2023-07-28T00:46:44;4.63;;;3.75;;
37973;SDS011;23796;51.458;7.000;2023-07-28T00:49:10;4.55;;;3.83;;
37973;SDS011;23796;51.458;7.000;2023-07-28T00:51:36;3.90;;;3.50;;
37973;SDS011;23796;51.458;7.000;2023-07-28T00:54:02;4.53;;;3.28;;
37973;SDS011;23796;51.458;7.000;2023-07-28T00:56:31;4.60;;;3.25;;
37973;SDS011;23796;51.458;7.000;2023-07-28T00:58:57;4.70;;;2.83;;
37973;SDS011;23796;51.458;7.000;2023-07-28T01:01:22;3.30;;;2.80;;
37973;SDS011;23796;51.458;7.000;2023-07-28T01:03:49;3.40;;;2.70;;
37973;SDS011;23796;51.458;7.000;2023-07-28T01:11:28;3.47;;;2.80;;
37973;SDS011;23796;51.458;7.000;2023-07-28T01:13:54;3.78;;;2.70;;
37973;SDS011;23796;51.458;7.000;2023-07-28T01:16:20;3.72;;;2.60;;
37973;SDS011;23796;51.458;7.000;2023-07-28T01:18:45;3.65;;;2.65;;
37973;SDS011;23796;51.458;7.000;2023-07-28T01:21:14;3.78;;;2.30;;
37973;SDS011;23796;51.458;7.000;2023-07-28T01:24:01;3.20;;;2.28;;
37973;SDS011;23796;51.458;7.000;2023-07-28T01:26:38;2.97;;;1.85;;
37973;SDS011;23796;51.458;7.000;2023-07-28T01:29:07;2.80;;;1.73;;
37973;SDS011;23796;51.458;7.000;2023-07-28T01:31:37;3.03;;;1.88;;
37973;SDS011;23796;51.458;7.000;2023-07-28T01:34:04;2.58;;;1.60;;
37973;SDS011;23796;51.458;7.000;2023-07-28T01:36:32;2.90;;;1.63;;
37973;SDS011;23796;51.458;7.000;2023-07-28T01:39:00;2.53;;;1.40;;
37973;SDS011;23796;51.458;7.000;2023-07-28T01:41:26;2.33;;;1.23;;
37973;SDS011;23796;51.458;7.000;2023-07-28T01:43:51;3.47;;;1.50;;
37973;SDS011;23796;51.458;7.000;2023-07-28T01:46:20;2.40;;;1.30;;
37973;SDS011;23796;51.458;7.000;2023-07-28T01:48:46;3.20;;;1.50;;
37973;SDS011;23796;51.458;7.000;2023-07-28T01:51:14;3.65;;;1.70;;
37973;SDS011;23796;51.458;7.000;2023-07-28T01:53:39;3.50;;;1.52;;
37973;SDS011;23796;51.458;7.000;2023-07-28T01:56:05;2.63;;;1.77;;
37973;SDS011;23796;51.458;7.000;2023-07-28T01:58:30;3.40;;;2.10;;
37973;SDS011;23796;51.458;7.000;2023-07-28T02:01:00;3.65;;;2.10;;
37973;SDS011;23796;51.458;7.000;2023-07-28T02:03:26;4.55;;;2.25;;
37973;SDS011;23796;51.458;7.000;2023-07-28T02:05:51;2.75;;;1.67;;
37973;SDS011;23796;51.458;7.000;2023-07-28T02:08:17;2.67;;;1.70;;
37973;SDS011;23796;51.458;7.000;2023-07-28T02:10:44;3.88;;;1.70;;
37973;SDS011;23796;51.458;7.000;2023-07-28T02:13:09;2.70;;;1.38;;
37973;SDS011;23796;51.458;7.000;2023-07-28T02:15:35;2.70;;;1.50;;
37973;SDS011;23796;51.458;7.000;2023-07-28T02:18:01;2.80;;;1.55;;
37973;SDS011;23796;51.458;7.000;2023-07-28T02:20:26;3.05;;;1.83;;
37973;SDS011;23796;51.458;7.000;2023-07-28T02:22:52;2.63;;;1.35;;
37973;SDS011;23796;51.458;7.000;2023-07-28T02:25:20;3.25;;;1.40;;
37973;SDS011;23796;51.458;7.000;2023-07-28T02:27:45;1.95;;;1.20;;
37973;SDS011;23796;51.458;7.000;2023-07-28T02:30:11;2.70;;;1.48;;
37973;SDS011;23796;51.458;7.000;2023-07-28T02:32:36;3.00;;;1.23;;
37973;SDS011;23796;51.458;7.000;2023-07-28T02:35:04;2.53;;;1.10;;
37973;SDS011;23796;51.458;7.000;2023-07-28T02:37:30;2.40;;;1.00;;
37973;SDS011;23796;51.458;7.000;2023-07-28T02:39:56;1.85;;;0.98;;
37973;SDS011;23796;51.458;7.000;2023-07-28T02:42:24;2.55;;;1.02;;
37973;SDS011;23796;51.458;7.000;2023-07-28T02:44:50;2.53;;;1.55;;
37973;SDS011;23796;51.458;7.000;2023-07-28T02:47:15;2.85;;;1.67;;
37973;SDS011;23796;51.458;7.000;2023-07-28T02:49:41;2.70;;;1.70;;
37973;SDS011;23796;51.458;7.000;2023-07-28T02:52:09;3.67;;;1.95;;
37973;SDS011;23796;51.458;7.000;2023-07-28T02:54:35;3.75;;;2.00;;
37973;SDS011;23796;51.458;7.000;2023-07-28T02:57:00;4.18;;;2.83;;
37973;SDS011;23796;51.458;7.000;2023-07-28T02:59:28;3.50;;;2.60;;
37973;SDS011;23796;51.458;7.000;2023-07-28T03:01:54;3.30;;;2.58;;
37973;SDS011;23796;51.458;7.000;2023-07-28T03:04:21;3.90;;;3.05;;
37973;SDS011;23796;51.458;7.000;2023-07-28T03:06:46;3.70;;;2.60;;
37973;SDS011;23796;51.458;7.000;2023-07-28T03:09:12;4.10;;;3.08;;
37973;SDS011;23796;51.458;7.000;2023-07-28T03:11:38;5.47;;;3.30;;
37973;SDS011;23796;51.458;7.000;2023-07-28T03:14:04;3.92;;;2.90;;
37973;SDS011;23796;51.458;7.000;2023-07-28T03:16:29;4.07;;;3.50;;
37973;SDS011;23796;51.458;7.000;2023-07-28T03:18:55;4.40;;;3.85;;
37973;SDS011;23796;51.458;7.000;2023-07-28T03:21:23;4.05;;;3.13;;
37973;SDS011;23796;51.458;7.000;2023-07-28T03:23:51;4.03;;;3.30;;
37973;SDS011;23796;51.458;7.000;2023-07-28T03:26:19;3.55;;;2.90;;
37973;SDS011;23796;51.458;7.000;2023-07-28T03:28:44;4.05;;;3.10;;
37973;SDS011;23796;51.458;7.000;2023-07-28T03:31:10;3.38;;;2.97;;
37973;SDS011;23796;51.458;7.000;2023-07-28T03:33:38;3.95;;;3.05;;
37973;SDS011;23796;51.458;7.000;2023-07-28T03:36:03;3.80;;;2.90;;
37973;SDS011;23796;51.458;7.000;2023-07-28T03:38:29;4.13;;;3.00;;
37973;SDS011;23796;51.458;7.000;2023-07-28T03:40:54;5.32;;;2.70;;
37973;SDS011;23796;51.458;7.000;2023-07-28T03:43:25;5.38;;;2.90;;
37973;SDS011;23796;51.458;7.000;2023-07-28T03:45:51;3.45;;;2.72;;
37973;SDS011;23796;51.458;7.000;2023-07-28T03:48:16;3.75;;;3.05;;
37973;SDS011;23796;51.458;7.000;2023-07-28T03:50:44;4.35;;;2.92;;
37973;SDS011;23796;51.458;7.000;2023-07-28T03:53:09;4.30;;;2.90;;
37973;SDS011;23796;51.458;7.000;2023-07-28T03:55:35;3.45;;;2.70;;
37973;SDS011;23796;51.458;7.000;2023-07-28T03:58:03;4.47;;;2.50;;
37973;SDS011;23796;51.458;7.000;2023-07-28T04:00:29;4.93;;;2.90;;
37973;SDS011;23796;51.458;7.000;2023-07-28T04:02:55;3.13;;;2.58;;
37973;SDS011;23796;51.458;7.000;2023-07-28T04:05:20;5.15;;;2.67;;
37973;SDS011;23796;51.458;7.000;2023-07-28T04:07:46;3.72;;;2.80;;
37973;SDS011;23796;51.458;7.000;2023-07-28T04:10:12;3.20;;;2.63;;
37973;SDS011;23796;51.458;7.000;2023-07-28T04:12:37;3.15;;;2.55;;
37973;SDS011;23796;51.458;7.000;2023-07-28T04:15:03;3.15;;;2.40;;
37973;SDS011;23796;51.458;7.000;2023-07-28T04:17:29;3.70;;;2.40;;
37973;SDS011;23796;51.458;7.000;2023-07-28T04:19:57;3.22;;;2.58;;
37973;SDS011;23796;51.458;7.000;2023-07-28T04:22:22;3.50;;;2.72;;
37973;SDS011;23796;51.458;7.000;2023-07-28T04:24:50;3.22;;;2.63;;
37973;SDS011;23796;51.458;7.000;2023-07-28T04:27:16;5.38;;;3.03;;
37973;SDS011;23796;51.458;7.000;2023-07-28T04:29:42;3.55;;;2.55;;
37973;SDS011;23796;51.458;7.000;2023-07-28T04:32:07;2.85;;;2.20;;
37973;SDS011;23796;51.458;7.000;2023-07-28T04:34:33;3.20;;;2.10;;
37973;SDS011;23796;51.458;7.000;2023-07-28T04:36:59;3.05;;;1.90;;
37973;SDS011;23796;51.458;7.000;2023-07-28T04:39:29;3.00;;;2.13;;
37973;SDS011;23796;51.458;7.000;2023-07-28T04:41:54;2.90;;;1.88;;
37973;SDS011;23796;51.458;7.000;2023-07-28T04:44:20;2.72;;;2.20;;
37973;SDS011;23796;51.458;7.000;2023-07-28T04:46:45;3.33;;;2.30;;
37973;SDS011;23796;51.458;7.000;2023-07-28T04:49:14;2.72;;;2.15;;
37973;SDS011;23796;51.458;7.000;2023-07-28T04:51:39;2.22;;;1.58;;
37973;SDS011;23796;51.458;7.000;2023-07-28T04:54:05;2.30;;;1.50;;
37973;SDS011;23796;51.458;7.000;2023-07-28T04:56:30;3.83;;;1.40;;
37973;SDS011;23796;51.458;7.000;2023-07-28T04:58:56;2.25;;;1.38;;
37973;SDS011;23796;51.458;7.000;2023-07-28T05:01:23;1.92;;;1.23;;
37973;SDS011;23796;51.458;7.000;2023-07-28T05:03:49;2.08;;;1.35;;
37973;SDS011;23796;51.458;7.000;2023-07-28T05:06:15;1.95;;;1.25;;
37973;SDS011;23796;51.458;7.000;2023-07-28T05:08:40;1.98;;;1.20;;
37973;SDS011;23796;51.458;7.000;2023-07-28T05:11:06;3.35;;;1.40;;
37973;SDS011;23796;51.458;7.000;2023-07-28T05:13:32;2.10;;;1.60;;
37973;SDS011;23796;51.458;7.000;2023-07-28T05:15:57;2.40;;;1.30;;
37973;SDS011;23796;51.458;7.000;2023-07-28T05:18:23;3.30;;;2.20;;
37973;SDS011;23796;51.458;7.000;2023-07-28T05:20:48;6.22;;;4.20;;
37973;SDS011;23796;51.458;7.000;2023-07-28T05:23:14;2.30;;;1.40;;
37973;SDS011;23796;51.458;7.000;2023-07-28T05:25:40;2.85;;;1.90;;
37973;SDS011;23796;51.458;7.000;2023-07-28T05:28:08;2.35;;;1.77;;
37973;SDS011;23796;51.458;7.000;2023-07-28T05:30:33;2.90;;;1.88;;
37973;SDS011;23796;51.458;7.000;2023-07-28T05:32:59;2.80;;;2.17;;
37973;SDS011;23796;51.458;7.000;2023-07-28T05:35:25;4.90;;;2.80;;
37973;SDS011;23796;51.458;7.000;2023-07-28T05:37:50;3.20;;;2.42;;
37973;SDS011;23796;51.458;7.000;2023-07-28T05:40:16;3.42;;;2.53;;
37973;SDS011;23796;51.458;7.000;2023-07-28T05:42:44;3.42;;;2.50;;
37973;SDS011;23796;51.458;7.000;2023-07-28T05:45:10;3.95;;;3.03;;
37973;SDS011;23796;51.458;7.000;2023-07-28T05:47:36;3.55;;;2.75;;
37973;SDS011;23796;51.458;7.000;2023-07-28T05:50:01;4.40;;;3.40;;
37973;SDS011;23796;51.458;7.000;2023-07-28T05:52:27;3.95;;;3.17;;
37973;SDS011;23796;51.458;7.000;2023-07-28T05:54:53;4.32;;;3.45;;
37973;SDS011;23796;51.458;7.000;2023-07-28T05:59:46;3.70;;;3.20;;
37973;SDS011;23796;51.458;7.000;2023-07-28T06:02:14;4.38;;;3.10;;
37973;SDS011;23796;51.458;7.000;2023-07-28T06:04:40;3.85;;;3.00;;
37973;SDS011;23796;51.458;7.000;2023-07-28T06:07:05;3.63;;;2.88;;
37973;SDS011;23796;51.458;7.000;2023-07-28T06:09:31;3.67;;;2.45;;
37973;SDS011;23796;51.458;7.000;2023-07-28T06:11:57;4.95;;;3.15;;
37973;SDS011;23796;51.458;7.000;2023-07-28T06:14:22;3.58;;;2.80;;
37973;SDS011;23796;51.458;7.000;2023-07-28T06:16:48;3.13;;;2.63;;
37973;SDS011;23796;51.458;7.000;2023-07-28T06:19:13;4.55;;;2.97;;
37973;SDS011;23796;51.458;7.000;2023-07-28T06:21:41;3.50;;;3.17;;
37973;SDS011;23796;51.458;7.000;2023-07-28T06:24:07;3.30;;;2.78;;
37973;SDS011;23796;51.458;7.000;2023-07-28T06:26:33;3.90;;;3.40;;
37973;SDS011;23796;51.458;7.000;2023-07-28T06:29:00;3.97;;;2.90;;
37973;SDS011;23796;51.458;7.000;2023-07-28T06:31:26;4.47;;;2.97;;
37973;SDS011;23796;51.458;7.000;2023-07-28T06:33:51;4.05;;;2.88;;
37973;SDS011;23796;51.458;7.000;2023-07-28T06:36:17;7.07;;;6.38;;
37973;SDS011;23796;51.458;7.000;2023-07-28T06:38:43;3.42;;;2.90;;
37973;SDS011;23796;51.458;7.000;2023-07-28T06:41:10;3.53;;;2.63;;
37973;SDS011;23796;51.458;7.000;2023-07-28T06:43:36;12.23;;;11.23;;
37973;SDS011;23796;51.458;7.000;2023-07-28T06:46:02;3.58;;;2.90;;
37973;SDS011;23796;51.458;7.000;2023-07-28T06:48:27;3.60;;;2.78;;
37973;SDS011;23796;51.458;7.000;2023-07-28T06:50:53;3.60;;;2.90;;
37973;SDS011;23796;51.458;7.000;2023-07-28T06:53:21;3.53;;;2.75;;
37973;SDS011;23796;51.458;7.000;2023-07-28T06:55:49;3.92;;;3.28;;
37973;SDS011;23796;51.458;7.000;2023-07-28T06:58:15;3.90;;;3.17;;
37973;SDS011;23796;51.458;7.000;2023-07-28T07:00:43;5.68;;;3.60;;
37973;SDS011;23796;51.458;7.000;2023-07-28T07:03:09;3.78;;;2.90;;
37973;SDS011;23796;51.458;7.000;2023-07-28T07:05:35;4.10;;;3.38;;
37973;SDS011;23796;51.458;7.000;2023-07-28T07:08:03;4.55;;;2.92;;
37973;SDS011;23796;51.458;7.000;2023-07-28T07:10:31;3.85;;;3.00;;
37973;SDS011;23796;51.458;7.000;2023-07-28T07:12:56;4.22;;;3.03;;
37973;SDS011;23796;51.458;7.000;2023-07-28T07:15:24;4.20;;;3.33;;
37973;SDS011;23796;51.458;7.000;2023-07-28T07:17:50;4.60;;;3.75;;
37973;SDS011;23796;51.458;7.000;2023-07-28T07:20:15;4.57;;;4.15;;
37973;SDS011;23796;51.458;7.000;2023-07-28T07:22:41;4.97;;;4.00;;
37973;SDS011;23796;51.458;7.000;2023-07-28T07:25:07;4.20;;;3.53;;
37973;SDS011;23796;51.458;7.000;2023-07-28T07:27:33;5.45;;;4.07;;
37973;SDS011;23796;51.458;7.000;2023-07-28T07:29:58;5.65;;;3.97;;
37973;SDS011;23796;51.458;7.000;2023-07-28T07:32:24;5.40;;;4.60;;
37973;SDS011;23796;51.458;7.000;2023-07-28T07:34:50;4.95;;;4.32;;
37973;SDS011;23796;51.458;7.000;2023-07-28T07:37:15;6.00;;;5.40;;
37973;SDS011;23796;51.458;7.000;2023-07-28T07:39:43;4.93;;;4.35;;
37973;SDS011;23796;51.458;7.000;2023-07-28T07:42:09;5.50;;;4.57;;
37973;SDS011;23796;51.458;7.000;2023-07-28T07:44:36;4.93;;;4.32;;
37973;SDS011;23796;51.458;7.000;2023-07-28T07:47:11;5.80;;;4.22;;
37973;SDS011;23796;51.458;7.000;2023-07-28T07:49:40;4.82;;;3.75;;
37973;SDS011;23796;51.458;7.000;2023-07-28T07:52:09;4.00;;;3.20;;
37973;SDS011;23796;51.458;7.000;2023-07-28T07:54:35;5.45;;;3.70;;
37973;SDS011;23796;51.458;7.000;2023-07-28T07:57:01;3.88;;;3.10;;
37973;SDS011;23796;51.458;7.000;2023-07-28T07:59:27;4.35;;;3.60;;
37973;SDS011;23796;51.458;7.000;2023-07-28T08:01:58;6.03;;;4.00;;
37973;SDS011;23796;51.458;7.000;2023-07-28T08:04:25;4.75;;;4.25;;
37973;SDS011;23796;51.458;7.000;2023-07-28T08:06:53;6.45;;;5.30;;
37973;SDS011;23796;51.458;7.000;2023-07-28T08:09:21;6.07;;;4.82;;
37973;SDS011;23796;51.458;7.000;2023-07-28T08:11:47;5.85;;;5.30;;
37973;SDS011;23796;51.458;7.000;2023-07-28T08:14:12;6.30;;;5.70;;
37973;SDS011;23796;51.458;7.000;2023-07-28T08:16:38;5.70;;;5.20;;
37973;SDS011;23796;51.458;7.000;2023-07-28T08:19:05;5.63;;;5.03;;
37973;SDS011;23796;51.458;7.000;2023-07-28T08:21:31;5.72;;;5.22;;
37973;SDS011;23796;51.458;7.000;2023-07-28T08:24:01;6.13;;;5.13;;
37973;SDS011;23796;51.458;7.000;2023-07-28T08:26:30;5.28;;;4.78;;
37973;SDS011;23796;51.458;7.000;2023-07-28T08:28:56;4.82;;;4.32;;
37973;SDS011;23796;51.458;7.000;2023-07-28T08:31:24;5.97;;;4.45;;
37973;SDS011;23796;51.458;7.000;2023-07-28T08:33:49;4.50;;;4.10;;
37973;SDS011;23796;51.458;7.000;2023-07-28T08:36:18;4.93;;;4.43;;
37973;SDS011;23796;51.458;7.000;2023-07-28T08:38:44;5.70;;;5.10;;
37973;SDS011;23796;51.458;7.000;2023-07-28T08:41:10;6.28;;;5.68;;
37973;SDS011;23796;51.458;7.000;2023-07-28T08:43:36;6.50;;;5.90;;
37973;SDS011;23796;51.458;7.000;2023-07-28T08:46:02;5.78;;;5.28;;
37973;SDS011;23796;51.458;7.000;2023-07-28T08:48:28;5.25;;;4.57;;
37973;SDS011;23796;51.458;7.000;2023-07-28T08:50:54;5.00;;;4.18;;
37973;SDS011;23796;51.458;7.000;2023-07-28T08:53:22;4.00;;;3.47;;
37973;SDS011;23796;51.458;7.000;2023-07-28T08:55:47;3.72;;;3.15;;
37973;SDS011;23796;51.458;7.000;2023-07-28T08:58:14;4.03;;;2.72;;
37973;SDS011;23796;51.458;7.000;2023-07-28T09:00:47;3.60;;;1.65;;
37973;SDS011;23796;51.458;7.000;2023-07-28T09:03:17;3.22;;;2.20;;
37973;SDS011;23796;51.458;7.000;2023-07-28T09:05:43;1.80;;;0.95;;
37973;SDS011;23796;51.458;7.000;2023-07-28T09:08:11;1.75;;;1.00;;
37973;SDS011;23796;51.458;7.000;2023-07-28T09:10:46;1.73;;;0.98;;
37973;SDS011;23796;51.458;7.000;2023-07-28T09:13:39;1.70;;;0.90;;
37973;SDS011;23796;51.458;7.000;2023-07-28T09:16:16;2.90;;;1.23;;
37973;SDS011;23796;51.458;7.000;2023-07-28T09:18:45;2.70;;;1.10;;
37973;SDS011;23796;51.458;7.000;2023-07-28T09:21:18;2.90;;;2.10;;
37973;SDS011;23796;51.458;7.000;2023-07-28T09:23:46;2.80;;;1.90;;
37973;SDS011;23796;51.458;7.000;2023-07-28T09:26:12;2.05;;;1.23;;
37973;SDS011;23796;51.458;7.000;2023-07-28T09:28:40;2.05;;;0.90;;
37973;SDS011;23796;51.458;7.000;2023-07-28T09:31:06;2.28;;;1.00;;
37973;SDS011;23796;51.458;7.000;2023-07-28T09:33:33;1.70;;;0.88;;
37973;SDS011;23796;51.458;7.000;2023-07-28T09:36:13;2.53;;;1.13;;
37973;SDS011;23796;51.458;7.000;2023-07-28T09:38:44;3.15;;;1.92;;
37973;SDS011;23796;51.458;7.000;2023-07-28T09:41:13;4.65;;;3.05;;
37973;SDS011;23796;51.458;7.000;2023-07-28T09:43:39;3.72;;;3.05;;
37973;SDS011;23796;51.458;7.000;2023-07-28T09:46:09;4.65;;;3.03;;
37973;SDS011;23796;51.458;7.000;2023-07-28T09:48:37;4.82;;;3.42;;
37973;SDS011;23796;51.458;7.000;2023-07-28T09:51:08;3.55;;;2.63;;
37973;SDS011;23796;51.458;7.000;2023-07-28T09:53:40;4.03;;;2.90;;
37973;SDS011;23796;51.458;7.000;2023-07-28T09:56:14;4.43;;;2.67;;
37973;SDS011;23796;51.458;7.000;2023-07-28T09:58:44;3.25;;;2.20;;
37973;SDS011;23796;51.458;7.000;2023-07-28T10:01:21;3.45;;;2.25;;
37973;SDS011;23796;51.458;7.000;2023-07-28T10:03:48;5.45;;;4.47;;
37973;SDS011;23796;51.458;7.000;2023-07-28T10:06:14;3.40;;;2.20;;
37973;SDS011;23796;51.458;7.000;2023-07-28T10:08:44;3.85;;;2.58;;
37973;SDS011;23796;51.458;7.000;2023-07-28T10:11:12;3.35;;;2.30;;
37973;SDS011;23796;51.458;7.000;2023-07-28T10:13:40;3.97;;;2.00;;
37973;SDS011;23796;51.458;7.000;2023-07-28T10:16:07;3.13;;;1.90;;
37973;SDS011;23796;51.458;7.000;2023-07-28T10:18:34;3.30;;;2.45;;
37973;SDS011;23796;51.458;7.000;2023-07-28T10:21:09;3.47;;;2.15;;
37973;SDS011;23796;51.458;7.000;2023-07-28T10:23:40;3.75;;;2.10;;
37973;SDS011;23796;51.458;7.000;2023-07-28T10:26:06;2.90;;;2.10;;
37973;SDS011;23796;51.458;7.000;2023-07-28T10:28:36;3.05;;;2.10;;
37973;SDS011;23796;51.458;7.000;2023-07-28T10:31:06;2.60;;;1.85;;
37973;SDS011;23796;51.458;7.000;2023-07-28T10:33:34;2.70;;;1.85;;
37973;SDS011;23796;51.458;7.000;2023-07-28T10:36:17;3.13;;;2.05;;
37973;SDS011;23796;51.458;7.000;2023-07-28T10:39:00;3.28;;;1.80;;
37973;SDS011;23796;51.458;7.000;2023-07-28T10:41:37;3.80;;;2.28;;
37973;SDS011;23796;51.458;7.000;2023-07-28T10:44:19;3.30;;;1.80;;
37973;SDS011;23796;51.458;7.000;2023-07-28T10:46:45;3.17;;;1.50;;
37973;SDS011;23796;51.458;7.000;2023-07-28T10:49:14;3.03;;;1.60;;
37973;SDS011;23796;51.458;7.000;2023-07-28T10:51:42;2.95;;;1.38;;
37973;SDS011;23796;51.458;7.000;2023-07-28T10:54:07;3.47;;;1.45;;
37973;SDS011;23796;51.458;7.000;2023-07-28T10:56:33;2.67;;;1.50;;
37973;SDS011;23796;51.458;7.000;2023-07-28T10:59:02;3.15;;;1.80;;
37973;SDS011;23796;51.458;7.000;2023-07-28T11:01:38;3.53;;;1.85;;
37973;SDS011;23796;51.458;7.000;2023-07-28T11:06:47;2.80;;;1.63;;
37973;SDS011;23796;51.458;7.000;2023-07-28T11:09:15;5.75;;;2.45;;
37973;SDS011;23796;51.458;7.000;2023-07-28T11:11:43;4.20;;;2.42;;
37973;SDS011;23796;51.458;7.000;2023-07-28T11:14:10;4.28;;;2.75;;
37973;SDS011;23796;51.458;7.000;2023-07-28T11:16:37;4.15;;;2.75;;
37973;SDS011;23796;51.458;7.000;2023-07-28T11:19:07;4.10;;;2.90;;
37973;SDS011;23796;51.458;7.000;2023-07-28T11:21:40;5.95;;;5.30;;
37973;SDS011;23796;51.458;7.000;2023-07-28T11:24:06;4.43;;;3.10;;
37973;SDS011;23796;51.458;7.000;2023-07-28T11:26:38;4.97;;;3.08;;
37973;SDS011;23796;51.458;7.000;2023-07-28T11:29:05;3.95;;;2.60;;
37973;SDS011;23796;51.458;7.000;2023-07-28T11:31:31;3.30;;;2.83;;
37973;SDS011;23796;51.458;7.000;2023-07-28T11:33:58;3.33;;;2.47;;
37973;SDS011;23796;51.458;7.000;2023-07-28T11:36:24;3.63;;;2.47;;
37973;SDS011;23796;51.458;7.000;2023-07-28T11:38:51;3.65;;;2.30;;
37973;SDS011;23796;51.458;7.000;2023-07-28T11:41:19;4.07;;;2.60;;
37973;SDS011;23796;51.458;7.000;2023-07-28T11:43:48;4.25;;;2.30;;
37973;SDS011;23796;51.458;7.000;2023-07-28T11:51:44;10.75;;;5.68;;
37973;SDS011;23796;51.458;7.000;2023-07-28T11:54:12;5.25;;;2.80;;
37973;SDS011;23796;51.458;7.000;2023-07-28T11:56:42;8.80;;;5.57;;
37973;SDS011;23796;51.458;7.000;2023-07-28T11:59:09;4.93;;;3.22;;
37973;SDS011;23796;51.458;7.000;2023-07-28T12:01:50;4.53;;;3.40;;
37973;SDS011;23796;51.458;7.000;2023-07-28T12:04:28;7.10;;;3.63;;
37973;SDS011;23796;51.458;7.000;2023-07-28T12:07:08;3.67;;;2.00;;
37973;SDS011;23796;51.458;7.000;2023-07-28T12:12:17;3.38;;;1.42;;
37973;SDS011;23796;51.458;7.000;2023-07-28T12:14:44;4.47;;;1.17;;
37973;SDS011;23796;51.458;7.000;2023-07-28T12:22:27;2.92;;;0.90;;
37973;SDS011;23796;51.458;7.000;2023-07-28T12:24:55;2.22;;;1.20;;
37973;SDS011;23796;51.458;7.000;2023-07-28T12:27:23;1.67;;;0.80;;
37973;SDS011;23796;51.458;7.000;2023-07-28T12:29:51;1.85;;;0.90;;
37973;SDS011;23796;51.458;7.000;2023-07-28T12:32:19;2.50;;;0.60;;
37973;SDS011;23796;51.458;7.000;2023-07-28T12:34:45;1.38;;;0.77;;
37973;SDS011;23796;51.458;7.000;2023-07-28T12:37:10;1.55;;;0.70;;
37973;SDS011;23796;51.458;7.000;2023-07-28T12:39:37;1.90;;;0.75;;
37973;SDS011;23796;51.458;7.000;2023-07-28T12:42:08;1.85;;;0.70;;
37973;SDS011;23796;51.458;7.000;2023-07-28T12:44:36;1.88;;;0.82;;
37973;SDS011;23796;51.458;7.000;2023-07-28T12:47:02;3.40;;;1.00;;
37973;SDS011;23796;51.458;7.000;2023-07-28T12:49:28;3.45;;;1.10;;
37973;SDS011;23796;51.458;7.000;2023-07-28T12:51:55;2.78;;;1.55;;
37973;SDS011;23796;51.458;7.000;2023-07-28T12:54:22;3.55;;;1.58;;
37973;SDS011;23796;51.458;7.000;2023-07-28T12:56:50;3.58;;;1.20;;
37973;SDS011;23796;51.458;7.000;2023-07-28T12:59:16;1.83;;;0.90;;
37973;SDS011;23796;51.458;7.000;2023-07-28T13:01:45;2.58;;;0.75;;
37973;SDS011;23796;51.458;7.000;2023-07-28T13:04:13;2.35;;;0.82;;
37973;SDS011;23796;51.458;7.000;2023-07-28T13:06:38;3.13;;;0.80;;
37973;SDS011;23796;51.458;7.000;2023-07-28T13:09:08;1.77;;;0.80;;
37973;SDS011;23796;51.458;7.000;2023-07-28T13:11:34;1.75;;;0.70;;
37973;SDS011;23796;51.458;7.000;2023-07-28T13:14:02;3.03;;;0.60;;
37973;SDS011;23796;51.458;7.000;2023-07-28T13:16:30;1.75;;;0.70;;
37973;SDS011;23796;51.458;7.000;2023-07-28T13:18:58;1.27;;;0.60;;
37973;SDS011;23796;51.458;7.000;2023-07-28T13:21:24;1.60;;;0.68;;
37973;SDS011;23796;51.458;7.000;2023-07-28T13:23:53;1.08;;;0.52;;
37973;SDS011;23796;51.458;7.000;2023-07-28T13:26:21;1.65;;;0.80;;
37973;SDS011;23796;51.458;7.000;2023-07-28T13:28:46;1.63;;;0.80;;
37973;SDS011;23796;51.458;7.000;2023-07-28T13:31:13;2.45;;;0.63;;
37973;SDS011;23796;51.458;7.000;2023-07-28T13:33:42;1.33;;;0.55;;
37973;SDS011;23796;51.458;7.000;2023-07-28T13:36:07;1.95;;;0.70;;
37973;SDS011;23796;51.458;7.000;2023-07-28T13:38:33;2.85;;;0.63;;
37973;SDS011;23796;51.458;7.000;2023-07-28T13:41:00;2.22;;;0.80;;
37973;SDS011;23796;51.458;7.000;2023-07-28T13:43:25;1.98;;;0.70;;
37973;SDS011;23796;51.458;7.000;2023-07-28T13:45:51;1.65;;;0.80;;
37973;SDS011;23796;51.458;7.000;2023-07-28T13:48:19;2.17;;;0.68;;
37973;SDS011;23796;51.458;7.000;2023-07-28T13:50:45;1.33;;;0.60;;
37973;SDS011;23796;51.458;7.000;2023-07-28T13:53:11;0.95;;;0.45;;
37973;SDS011;23796;51.458;7.000;2023-07-28T13:55:37;1.05;;;0.40;;
37973;SDS011;23796;51.458;7.000;2023-07-28T13:58:03;1.45;;;0.60;;
37973;SDS011;23796;51.458;7.000;2023-07-28T14:00:32;1.23;;;0.60;;
37973;SDS011;23796;51.458;7.000;2023-07-28T14:02:57;1.30;;;0.60;;
37973;SDS011;23796;51.458;7.000;2023-07-28T14:05:25;1.55;;;0.57;;
37973;SDS011;23796;51.458;7.000;2023-07-28T14:07:54;0.90;;;0.50;;
37973;SDS011;23796;51.458;7.000;2023-07-28T14:10:22;1.48;;;0.47;;
37973;SDS011;23796;51.458;7.000;2023-07-28T14:12:49;1.40;;;0.73;;
37973;SDS011;23796;51.458;7.000;2023-07-28T14:15:14;1.20;;;0.50;;
37973;SDS011;23796;51.458;7.000;2023-07-28T14:17:40;0.95;;;0.45;;
37973;SDS011;23796;51.458;7.000;2023-07-28T14:20:06;1.27;;;0.40;;
37973;SDS011;23796;51.458;7.000;2023-07-28T14:22:33;1.05;;;0.50;;
37973;SDS011;23796;51.458;7.000;2023-07-28T14:24:59;2.58;;;0.50;;
37973;SDS011;23796;51.458;7.000;2023-07-28T14:27:24;0.95;;;0.40;;
37973;SDS011;23796;51.458;7.000;2023-07-28T14:29:50;3.13;;;0.40;;
37973;SDS011;23796;51.458;7.000;2023-07-28T14:32:15;0.75;;;0.30;;
37973;SDS011;23796;51.458;7.000;2023-07-28T14:34:41;1.60;;;0.52;;
37973;SDS011;23796;51.458;7.000;2023-07-28T14:37:09;1.33;;;0.75;;
37973;SDS011;23796;51.458;7.000;2023-07-28T14:39:36;1.20;;;0.50;;
37973;SDS011;23796;51.458;7.000;2023-07-28T14:42:02;0.93;;;0.40;;
37973;SDS011;23796;51.458;7.000;2023-07-28T14:44:28;1.38;;;0.50;;
37973;SDS011;23796;51.458;7.000;2023-07-28T14:46:54;2.35;;;0.50;;
37973;SDS011;23796;51.458;7.000;2023-07-28T14:49:19;1.15;;;0.50;;
37973;SDS011;23796;51.458;7.000;2023-07-28T14:51:45;2.72;;;0.52;;
37973;SDS011;23796;51.458;7.000;2023-07-28T14:54:11;1.27;;;0.60;;
37973;SDS011;23796;51.458;7.000;2023-07-28T14:56:37;1.45;;;0.40;;
37973;SDS011;23796;51.458;7.000;2023-07-28T14:59:05;1.58;;;0.52;;
37973;SDS011;23796;51.458;7.000;2023-07-28T15:01:31;0.80;;;0.40;;
37973;SDS011;23796;51.458;7.000;2023-07-28T15:03:57;1.42;;;0.40;;
37973;SDS011;23796;51.458;7.000;2023-07-28T15:06:24;1.20;;;0.30;;
37973;SDS011;23796;51.458;7.000;2023-07-28T15:08:51;0.68;;;0.38;;
37973;SDS011;23796;51.458;7.000;2023-07-28T15:11:17;2.53;;;0.50;;
37973;SDS011;23796;51.458;7.000;2023-07-28T15:13:43;2.10;;;0.60;;